createdAt,value
2018-01-25T00:01:35.080Z,101511.75
2018-01-25T00:04:01.431Z,101505.34
2018-01-25T00:06:27.705Z,101513.55
2018-01-25T00:08:53.944Z,101511.49
2018-01-25T00:11:20.160Z,101519.92
2018-01-25T00:13:46.388Z,101516.81
2018-01-25T00:16:12.685Z,101514.59
2018-01-25T00:18:38.913Z,101515.83
2018-01-25T00:21:05.121Z,101516.09
2018-01-25T00:23:31.392Z,101515.20
2018-01-25T00:25:57.648Z,101508.00
2018-01-25T00:28:23.824Z,101514.87
2018-01-25T00:30:50.105Z,101510.95
2018-01-25T00:33:16.364Z,101502.60
2018-01-25T00:35:42.561Z,101503.43
2018-01-25T00:38:08.808Z,101504.86
2018-01-25T00:40:35.044Z,101499.47
2018-01-25T00:43:01.307Z,101508.94
2018-01-25T00:45:27.572Z,101505.45
2018-01-25T00:47:53.796Z,101505.19
2018-01-25T00:50:20.007Z,101521.62
2018-01-25T00:52:46.220Z,101511.87
2018-01-25T00:55:12.464Z,101503.48
2018-01-25T00:57:38.773Z,101503.49
2018-01-25T01:00:05.037Z,101504.53
2018-01-25T01:02:31.228Z,101507.47
2018-01-25T01:04:57.460Z,101515.05
2018-01-25T01:07:23.708Z,101501.75
2018-01-25T01:09:49.981Z,101502.18
2018-01-25T01:12:16.212Z,101504.37
2018-01-25T01:14:42.492Z,101500.85
2018-01-25T01:17:08.793Z,101492.35
2018-01-25T01:19:34.985Z,101496.19
2018-01-25T01:22:01.204Z,101489.25
2018-01-25T01:24:27.449Z,101491.47
2018-01-25T01:26:53.668Z,101490.16
2018-01-25T01:29:19.914Z,101487.83
2018-01-25T01:31:46.193Z,101487.66
2018-01-25T01:34:12.409Z,101484.25
2018-01-25T01:36:38.596Z,101478.39
2018-01-25T01:39:04.845Z,101482.36
2018-01-25T01:41:31.072Z,101475.53
2018-01-25T01:43:57.256Z,101477.80
2018-01-25T01:46:23.545Z,101478.05
2018-01-25T01:48:49.777Z,101482.48
2018-01-25T01:51:15.961Z,101473.42
2018-01-25T01:53:42.212Z,101466.53
2018-01-25T01:56:08.408Z,101477.05
2018-01-25T01:58:34.620Z,101477.09
2018-01-25T02:01:00.920Z,101465.55
2018-01-25T02:03:27.244Z,101466.72
2018-01-25T02:05:53.494Z,101454.77
2018-01-25T02:08:19.816Z,101456.25
2018-01-25T02:10:46.035Z,101449.23
2018-01-25T02:13:12.241Z,101443.63
2018-01-25T02:15:38.477Z,101444.98
2018-01-25T02:18:04.721Z,101442.81
2018-01-25T02:20:30.972Z,101447.12
2018-01-25T02:22:57.301Z,101443.73
2018-01-25T02:25:23.501Z,101440.02
2018-01-25T02:27:49.758Z,101441.53
2018-01-25T02:30:16.085Z,101438.16
2018-01-25T02:32:42.289Z,101435.81
2018-01-25T02:35:08.521Z,101431.63
2018-01-25T02:37:34.775Z,101426.89
2018-01-25T02:40:01.009Z,101424.49
2018-01-25T02:42:27.231Z,101425.17
2018-01-25T02:44:53.401Z,101430.80
2018-01-25T02:47:19.569Z,101425.92
2018-01-25T02:49:45.791Z,101424.63
2018-01-25T02:52:12.057Z,101426.19
2018-01-25T02:54:38.380Z,101417.77
2018-01-25T02:57:04.609Z,101419.03
2018-01-25T02:59:30.776Z,101414.09
2018-01-25T03:01:56.998Z,101410.05
2018-01-25T03:04:23.287Z,101405.09
2018-01-25T03:06:49.457Z,101410.35
2018-01-25T03:09:15.653Z,101408.26
2018-01-25T03:11:41.976Z,101404.70
2018-01-25T03:14:08.176Z,101409.22
2018-01-25T03:16:34.361Z,101400.50
2018-01-25T03:19:00.554Z,101395.13
2018-01-25T03:21:26.768Z,101389.68
2018-01-25T03:23:52.992Z,101385.06
2018-01-25T03:26:19.218Z,101384.59
2018-01-25T03:28:45.400Z,101385.81
2018-01-25T03:31:11.625Z,101386.28
2018-01-25T03:33:37.857Z,101387.30
2018-01-25T03:36:04.100Z,101382.14
2018-01-25T03:38:30.293Z,101380.59
2018-01-25T03:40:56.496Z,101375.51
2018-01-25T03:43:22.717Z,101373.41
2018-01-25T03:45:48.940Z,101376.11
2018-01-25T03:48:15.168Z,101380.19
2018-01-25T03:50:41.386Z,101382.41
2018-01-25T03:53:07.556Z,101367.55
2018-01-25T03:55:33.713Z,101369.14
2018-01-25T03:57:59.982Z,101369.92
2018-01-25T04:00:26.189Z,101368.47
2018-01-25T04:02:52.397Z,101367.98
2018-01-25T04:05:18.608Z,101366.56
2018-01-25T04:07:44.957Z,101360.56
2018-01-25T04:10:11.136Z,101360.98
2018-01-25T04:12:37.309Z,101373.73
2018-01-25T04:15:03.484Z,101373.22
2018-01-25T04:17:29.753Z,101376.98
2018-01-25T04:19:56.040Z,101365.21
2018-01-25T04:22:22.243Z,101368.63
2018-01-25T04:24:48.557Z,101366.70
2018-01-25T04:27:14.781Z,101365.31
2018-01-25T04:29:40.974Z,101375.32
2018-01-25T04:32:07.142Z,101371.33
2018-01-25T04:34:33.369Z,101371.27
2018-01-25T04:36:59.596Z,101376.04
2018-01-25T04:39:25.812Z,101380.28
2018-01-25T04:41:51.996Z,101391.66
2018-01-25T04:44:18.212Z,101390.08
2018-01-25T04:46:44.420Z,101390.95
2018-01-25T04:49:10.624Z,101388.16
2018-01-25T04:51:36.855Z,101390.66
2018-01-25T04:54:03.116Z,101384.73
2018-01-25T04:56:29.325Z,101388.16
2018-01-25T04:58:55.505Z,101392.21
2018-01-25T05:01:21.781Z,101393.57
2018-01-25T05:03:48.176Z,101386.83
2018-01-25T05:06:14.378Z,101395.09
2018-01-25T05:08:40.665Z,101395.59
2018-01-25T05:11:06.936Z,101386.60
2018-01-25T05:13:33.217Z,101383.75
2018-01-25T05:15:59.493Z,101392.02
2018-01-25T05:18:25.751Z,101385.63
2018-01-25T05:20:52.005Z,101378.64
2018-01-25T05:23:18.225Z,101381.94
2018-01-25T05:25:44.493Z,101387.86
2018-01-25T05:28:10.752Z,101383.82
2018-01-25T05:30:37.053Z,101387.91
2018-01-25T05:33:03.324Z,101395.69
2018-01-25T05:35:29.608Z,101393.97
2018-01-25T05:37:55.825Z,101402.20
2018-01-25T05:40:22.041Z,101397.50
2018-01-25T05:42:48.704Z,101398.12
2018-01-25T05:45:14.870Z,101399.33
2018-01-25T05:47:41.045Z,101400.11
2018-01-25T05:50:07.285Z,101414.52
2018-01-25T05:52:33.558Z,101411.31
2018-01-25T05:54:59.932Z,101415.82
2018-01-25T05:57:26.121Z,101416.61
2018-01-25T05:59:52.325Z,101420.17
2018-01-25T06:02:18.521Z,101425.80
2018-01-25T06:04:44.769Z,101425.88
2018-01-25T06:07:10.986Z,101426.91
2018-01-25T06:09:37.160Z,101416.36
2018-01-25T06:12:03.372Z,101419.30
2018-01-25T06:14:29.633Z,101412.53
2018-01-25T06:16:55.819Z,101413.92
2018-01-25T06:19:22.191Z,101410.06
2018-01-25T06:21:48.425Z,101410.06
2018-01-25T06:24:14.684Z,101406.37
2018-01-25T06:26:40.939Z,101408.52
2018-01-25T06:29:07.116Z,101407.85
2018-01-25T06:31:33.278Z,101410.34
2018-01-25T06:33:59.511Z,101411.22
2018-01-25T06:36:25.752Z,101408.15
2018-01-25T06:38:51.936Z,101406.27
2018-01-25T06:41:18.132Z,101407.88
2018-01-25T06:43:44.296Z,101409.00
2018-01-25T06:46:10.565Z,101405.77
2018-01-25T06:48:36.745Z,101410.25
2018-01-25T06:51:02.960Z,101398.12
2018-01-25T06:53:29.116Z,101402.59
2018-01-25T06:55:55.317Z,101401.44
2018-01-25T06:58:21.558Z,101408.39
2018-01-25T07:00:47.769Z,101400.19
2018-01-25T07:03:14.080Z,101398.56
2018-01-25T07:05:40.671Z,101399.20
2018-01-25T07:08:07.513Z,101395.19
2018-01-25T07:10:33.891Z,101397.27
2018-01-25T07:13:00.072Z,101400.45
2018-01-25T07:15:26.292Z,101407.64
2018-01-25T07:17:52.452Z,101411.14
2018-01-25T07:20:18.676Z,101415.02
2018-01-25T07:22:44.921Z,101415.48
2018-01-25T07:25:11.104Z,101413.22
2018-01-25T07:27:37.316Z,101414.95
2018-01-25T07:30:03.514Z,101415.39
2018-01-25T07:32:30.181Z,101411.80
2018-01-25T07:34:56.456Z,101405.38
2018-01-25T07:37:22.652Z,101406.14
2018-01-25T07:39:48.812Z,101409.31
2018-01-25T07:42:15.084Z,101406.44
2018-01-25T07:44:41.245Z,101406.50
2018-01-25T07:47:07.428Z,101409.94
2018-01-25T07:49:33.680Z,101403.69
2018-01-25T07:51:59.913Z,101406.79
2018-01-25T07:54:26.104Z,101410.05
2018-01-25T07:56:52.459Z,101404.92
2018-01-25T07:59:18.676Z,101399.46
2018-01-25T08:01:44.844Z,101398.78
2018-01-25T08:04:11.057Z,101398.54
2018-01-25T08:06:37.255Z,101400.41
2018-01-25T08:09:03.557Z,101403.09
2018-01-25T08:11:29.868Z,101402.53
2018-01-25T08:13:56.036Z,101400.73
2018-01-25T08:16:28.325Z,101399.42
2018-01-25T08:18:54.617Z,101395.08
2018-01-25T08:21:20.796Z,101388.83
2018-01-25T08:23:46.971Z,101387.43
2018-01-25T08:26:13.177Z,101388.05
2018-01-25T08:28:39.345Z,101390.86
2018-01-25T08:31:05.524Z,101381.26
2018-01-25T08:33:31.785Z,101384.77
2018-01-25T08:35:58.098Z,101391.72
2018-01-25T08:38:24.297Z,101387.85
2018-01-25T08:40:50.501Z,101387.66
2018-01-25T08:43:16.716Z,101384.27
2018-01-25T08:45:42.959Z,101386.15
2018-01-25T08:48:09.161Z,101391.52
2018-01-25T08:50:35.364Z,101391.33
2018-01-25T08:53:01.591Z,101388.93
2018-01-25T08:55:27.790Z,101390.52
2018-01-25T08:57:54.080Z,101388.91
2018-01-25T09:00:20.377Z,101386.52
2018-01-25T09:02:46.644Z,101387.97
2018-01-25T09:05:12.944Z,101388.35
2018-01-25T09:07:39.241Z,101381.34
2018-01-25T09:10:05.536Z,101377.31
2018-01-25T09:12:31.740Z,101368.54
2018-01-25T09:14:58.053Z,101372.63
2018-01-25T09:17:24.244Z,101366.78
2018-01-25T09:19:50.464Z,101364.88
2018-01-25T09:22:16.764Z,101357.32
2018-01-25T09:24:42.921Z,101350.81
2018-01-25T09:27:09.176Z,101351.74
2018-01-25T09:29:35.433Z,101339.70
2018-01-25T09:32:01.720Z,101343.41
2018-01-25T09:34:27.955Z,101336.70
2018-01-25T09:36:54.181Z,101328.59
2018-01-25T09:39:20.352Z,101329.17
2018-01-25T09:41:46.689Z,101325.81
2018-01-25T09:44:12.881Z,101323.66
2018-01-25T09:46:39.153Z,101318.61
2018-01-25T09:49:05.432Z,101305.27
2018-01-25T09:51:31.661Z,101304.02
2018-01-25T09:53:57.868Z,101295.05
2018-01-25T09:56:24.161Z,101290.36
2018-01-25T09:58:50.406Z,101285.23
2018-01-25T10:01:16.610Z,101278.34
2018-01-25T10:03:42.848Z,101275.60
2018-01-25T10:06:09.137Z,101270.09
2018-01-25T10:08:35.486Z,101263.69
2018-01-25T10:11:01.690Z,101259.41
2018-01-25T10:13:27.900Z,101251.51
2018-01-25T10:15:54.152Z,101242.53
2018-01-25T10:18:20.425Z,101245.14
2018-01-25T10:20:46.612Z,101239.08
2018-01-25T10:23:12.894Z,101226.54
2018-01-25T10:25:39.105Z,101224.88
2018-01-25T10:28:05.309Z,101223.61
2018-01-25T10:30:31.573Z,101218.39
2018-01-25T10:32:57.782Z,101209.75
2018-01-25T10:35:23.976Z,101204.48
2018-01-25T10:37:50.166Z,101203.27
2018-01-25T10:40:16.429Z,101195.48
2018-01-25T10:42:42.706Z,101192.90
2018-01-25T10:45:09.003Z,101188.12
2018-01-25T10:47:35.345Z,101185.95
2018-01-25T10:50:01.726Z,101172.50
2018-01-25T10:52:28.037Z,101172.06
2018-01-25T10:54:54.273Z,101169.47
2018-01-25T10:57:20.532Z,101169.88
2018-01-25T10:59:46.768Z,101160.36
2018-01-25T11:02:13.021Z,101155.17
2018-01-25T11:04:39.312Z,101149.94
2018-01-25T11:07:05.661Z,101148.20
2018-01-25T11:09:31.879Z,101140.39
2018-01-25T11:11:58.124Z,101146.03
2018-01-25T11:14:24.418Z,101132.16
2018-01-25T11:16:50.656Z,101139.98
2018-01-25T11:19:16.902Z,101139.09
2018-01-25T11:21:43.185Z,101136.92
2018-01-25T11:24:09.364Z,101132.59
2018-01-25T11:26:35.566Z,101124.33
2018-01-25T11:29:01.812Z,101115.66
2018-01-25T11:31:28.062Z,101116.94
2018-01-25T11:33:54.280Z,101109.96
2018-01-25T11:36:20.557Z,101103.91
2018-01-25T11:38:46.733Z,101102.20
2018-01-25T11:41:12.922Z,101092.65
2018-01-25T11:43:39.141Z,101089.16
2018-01-25T11:46:05.380Z,101082.63
2018-01-25T11:48:31.609Z,101076.16
2018-01-25T11:50:57.837Z,101076.13
2018-01-25T11:53:24.235Z,101072.22
2018-01-25T11:55:50.435Z,101063.93
2018-01-25T11:58:16.765Z,101066.09
2018-01-25T12:00:42.988Z,101059.11
2018-01-25T12:03:09.216Z,101054.34
2018-01-25T12:05:35.467Z,101050.02
2018-01-25T12:08:01.646Z,101052.66
2018-01-25T12:10:27.899Z,101040.51
2018-01-25T12:12:54.052Z,101047.45
2018-01-25T12:15:20.266Z,101033.09
2018-01-25T12:17:46.745Z,101034.80
2018-01-25T12:20:13.025Z,101030.05
2018-01-25T12:22:39.233Z,101028.25
2018-01-25T12:25:05.461Z,101029.96
2018-01-25T12:27:31.726Z,101027.36
2018-01-25T12:29:57.981Z,101027.91
2018-01-25T12:32:24.173Z,101021.78
2018-01-25T12:34:50.497Z,101023.06
2018-01-25T12:37:16.665Z,101022.22
2018-01-25T12:39:42.892Z,101021.37
2018-01-25T12:42:09.181Z,101021.83
2018-01-25T12:44:35.432Z,101013.59
2018-01-25T12:47:01.684Z,101014.94
2018-01-25T12:49:27.869Z,101012.75
2018-01-25T12:51:54.064Z,101000.50
2018-01-25T12:54:20.345Z,101004.82
2018-01-25T12:56:46.595Z,101005.72
2018-01-25T12:59:12.781Z,100990.95
2018-01-25T13:01:38.960Z,100988.34
2018-01-25T13:04:05.156Z,100992.66
2018-01-25T13:06:31.353Z,100992.20
2018-01-25T13:08:57.588Z,100994.10
2018-01-25T13:11:23.836Z,100986.28
2018-01-25T13:13:50.173Z,100985.75
2018-01-25T13:16:16.381Z,100983.09
2018-01-25T13:18:42.634Z,100977.02
2018-01-25T13:21:08.912Z,100981.82
2018-01-25T13:23:35.189Z,100980.09
2018-01-25T13:26:01.433Z,100977.92
2018-01-25T13:28:27.717Z,100970.45
2018-01-25T13:30:54.082Z,100972.66
2018-01-25T13:33:26.168Z,100968.73
2018-01-25T13:35:52.436Z,100972.67
2018-01-25T13:38:18.693Z,100970.08
2018-01-25T13:40:44.901Z,100963.13
2018-01-25T13:43:11.139Z,100960.94
2018-01-25T13:45:37.369Z,100960.97
2018-01-25T13:48:03.656Z,100961.39
2018-01-25T13:50:29.877Z,100953.98
2018-01-25T13:52:56.092Z,100953.13
2018-01-25T13:55:22.365Z,100952.75
2018-01-25T13:57:48.570Z,100954.46
2018-01-25T14:00:14.740Z,100958.38
2018-01-25T14:02:41.068Z,100958.81
2018-01-25T14:05:07.317Z,100958.38
2018-01-25T14:07:33.560Z,100957.06
2018-01-25T14:09:59.828Z,100954.90
2018-01-25T14:12:26.064Z,100952.74
2018-01-25T14:14:52.405Z,100952.74
2018-01-25T14:17:18.688Z,100950.14
2018-01-25T14:19:44.901Z,100948.42
2018-01-25T14:22:11.176Z,100947.14
2018-01-25T14:24:37.405Z,100947.11
2018-01-25T14:27:03.585Z,100942.77
2018-01-25T14:29:29.860Z,100940.59
2018-01-25T14:31:56.109Z,100945.81
2018-01-25T14:34:22.342Z,100941.48
2018-01-25T14:36:48.644Z,100944.08
2018-01-25T14:39:14.867Z,100943.67
2018-01-25T14:41:41.121Z,100935.84
2018-01-25T14:44:07.297Z,100935.42
2018-01-25T14:46:33.517Z,100936.71
2018-01-25T14:48:59.784Z,100934.12
2018-01-25T14:51:26.047Z,100933.23
2018-01-25T14:53:52.297Z,100930.23
2018-01-25T14:56:18.609Z,100936.30
2018-01-25T14:58:44.835Z,100939.80
2018-01-25T15:01:11.085Z,100931.98
2018-01-25T15:03:37.360Z,100930.28
2018-01-25T15:06:03.583Z,100929.89
2018-01-25T15:08:29.813Z,100938.55
2018-01-25T15:10:56.018Z,100936.86
2018-01-25T15:13:22.257Z,100941.17
2018-01-25T15:15:48.472Z,100942.48
2018-01-25T15:18:14.705Z,100937.73
2018-01-25T15:20:40.942Z,100942.53
2018-01-25T15:23:07.141Z,100942.52
2018-01-25T15:25:39.365Z,100938.20
2018-01-25T15:28:05.565Z,100941.27
2018-01-25T15:30:31.837Z,100942.58
2018-01-25T15:32:58.216Z,100944.33
2018-01-25T15:35:24.480Z,100939.99
2018-01-25T15:37:50.889Z,100938.70
2018-01-25T15:40:17.152Z,100941.31
2018-01-25T15:42:43.358Z,100931.33
2018-01-25T15:45:09.601Z,100937.41
2018-01-25T15:47:35.840Z,100941.33
2018-01-25T15:50:02.249Z,100939.56
2018-01-25T15:52:28.477Z,100937.84
2018-01-25T15:54:54.706Z,100944.35
2018-01-25T15:57:20.904Z,100949.56
2018-01-25T15:59:47.152Z,100947.40
2018-01-25T16:02:13.438Z,100950.45
2018-01-25T16:04:39.608Z,100952.63
2018-01-25T16:07:05.824Z,100952.18
2018-01-25T16:09:32.053Z,100950.88
2018-01-25T16:11:58.293Z,100953.07
2018-01-25T16:14:24.484Z,100953.05
2018-01-25T16:16:50.722Z,100957.41
2018-01-25T16:19:16.957Z,100952.21
2018-01-25T16:21:43.172Z,100963.89
2018-01-25T16:24:09.429Z,100956.09
2018-01-25T16:26:35.640Z,100955.25
2018-01-25T16:29:01.881Z,100954.38
2018-01-25T16:31:28.108Z,100956.53
2018-01-25T16:33:54.361Z,100958.70
2018-01-25T16:36:20.593Z,100953.94
2018-01-25T16:38:47.039Z,100959.53
2018-01-25T16:41:13.124Z,100953.03
2018-01-25T16:43:39.306Z,100960.40
2018-01-25T16:46:05.616Z,100950.86
2018-01-25T16:48:31.893Z,100954.34
2018-01-25T16:50:58.074Z,100954.74
2018-01-25T16:53:24.325Z,100953.88
2018-01-25T16:55:50.640Z,100960.78
2018-01-25T16:58:16.886Z,100960.80
2018-01-25T17:00:43.158Z,100962.55
2018-01-25T17:03:09.369Z,100960.80
2018-01-25T17:05:35.624Z,100964.20
2018-01-25T17:08:01.876Z,100965.07
2018-01-25T17:10:28.129Z,100964.22
2018-01-25T17:12:54.384Z,100966.84
2018-01-25T17:15:20.589Z,100969.40
2018-01-25T17:17:46.840Z,100975.89
2018-01-25T17:20:13.085Z,100974.16
2018-01-25T17:22:39.362Z,100979.34
2018-01-25T17:25:05.709Z,100977.58
2018-01-25T17:27:31.953Z,100978.84
2018-01-25T17:29:58.188Z,100979.69
2018-01-25T17:32:24.456Z,100980.07
2018-01-25T17:34:50.712Z,100984.34
2018-01-25T17:37:16.954Z,100980.72
2018-01-25T17:39:43.188Z,100979.92
2018-01-25T17:42:09.440Z,100982.48
2018-01-25T17:44:35.704Z,100979.90
2018-01-25T17:47:01.989Z,100988.05
2018-01-25T17:49:28.292Z,100992.30
2018-01-25T17:51:54.545Z,100990.65
2018-01-25T17:54:20.737Z,100987.62
2018-01-25T17:56:46.981Z,100991.02
2018-01-25T17:59:13.259Z,100994.41
2018-01-25T18:01:39.480Z,100994.36
2018-01-25T18:04:05.733Z,100990.41
2018-01-25T18:06:31.988Z,100990.38
2018-01-25T18:08:58.193Z,100994.23
2018-01-25T18:11:24.456Z,101001.05
2018-01-25T18:13:50.689Z,100993.73
2018-01-25T18:16:16.892Z,100994.58
2018-01-25T18:18:43.137Z,100994.84
2018-01-25T18:21:09.412Z,101001.72
2018-01-25T18:23:35.697Z,101001.22
2018-01-25T18:26:01.992Z,100997.31
2018-01-25T18:28:28.196Z,100996.50
2018-01-25T18:30:54.428Z,100997.75
2018-01-25T18:33:20.792Z,100992.98
2018-01-25T18:35:46.969Z,100998.51
2018-01-25T18:38:13.197Z,100991.88
2018-01-25T18:40:39.504Z,100992.77
2018-01-25T18:43:05.704Z,100997.13
2018-01-25T18:45:32.148Z,101000.92
2018-01-25T18:47:58.368Z,101005.51
2018-01-25T18:50:24.600Z,100999.16
2018-01-25T18:52:50.873Z,101000.73
2018-01-25T18:55:17.144Z,101003.95
2018-01-25T18:57:43.360Z,101005.25
2018-01-25T19:00:09.685Z,101006.95
2018-01-25T19:02:35.932Z,101017.53
2018-01-25T19:05:02.194Z,101013.36
2018-01-25T19:07:28.387Z,101018.50
2018-01-25T19:09:54.662Z,101017.92
2018-01-25T19:12:20.920Z,101017.39
2018-01-25T19:14:47.184Z,101018.29
2018-01-25T19:17:13.433Z,101016.58
2018-01-25T19:19:39.624Z,101021.34
2018-01-25T19:22:05.990Z,101017.89
2018-01-25T19:24:32.308Z,101022.56
2018-01-25T19:26:58.560Z,101027.23
2018-01-25T19:29:24.852Z,101024.63
2018-01-25T19:31:51.695Z,101022.81
2018-01-25T19:34:17.922Z,101021.53
2018-01-25T19:36:44.136Z,101024.92
2018-01-25T19:39:10.357Z,101027.98
2018-01-25T19:41:36.584Z,101030.16
2018-01-25T19:44:02.899Z,101028.32
2018-01-25T19:46:29.145Z,101028.81
2018-01-25T19:48:55.332Z,101026.38
2018-01-25T19:51:21.557Z,101024.77
2018-01-25T19:53:47.809Z,101020.41
2018-01-25T19:56:14.010Z,101024.41
2018-01-25T19:58:40.297Z,101027.75
2018-01-25T20:01:06.565Z,101029.70
2018-01-25T20:03:32.805Z,101033.05
2018-01-25T20:05:59.037Z,101031.17
2018-01-25T20:08:25.300Z,101035.05
2018-01-25T20:10:51.766Z,101036.53
2018-01-25T20:13:17.994Z,101033.94
2018-01-25T20:15:45.253Z,101041.52
2018-01-25T20:18:11.468Z,101039.80
2018-01-25T20:20:38.574Z,101046.25
2018-01-25T20:23:04.869Z,101043.30
2018-01-25T20:25:31.033Z,101048.86
2018-01-25T20:27:57.237Z,101050.73
2018-01-25T20:30:23.532Z,101042.83
2018-01-25T20:32:49.781Z,101043.72
2018-01-25T20:35:15.997Z,101045.55
2018-01-25T20:37:42.261Z,101046.02
2018-01-25T20:40:08.486Z,101040.69
2018-01-25T20:42:34.709Z,101042.81
2018-01-25T20:45:00.967Z,101038.34
2018-01-25T20:47:27.217Z,101037.91
2018-01-25T20:49:53.457Z,101041.50
2018-01-25T20:52:19.749Z,101041.12
2018-01-25T20:54:46.078Z,101042.31
2018-01-25T20:57:12.269Z,101040.16
2018-01-25T20:59:38.490Z,101039.30
2018-01-25T21:02:04.717Z,101048.59
2018-01-25T21:04:30.930Z,101055.22
2018-01-25T21:06:57.135Z,101040.53
2018-01-25T21:09:23.473Z,101046.42
2018-01-25T21:11:49.663Z,101048.45
2018-01-25T21:14:15.881Z,101051.73
2018-01-25T21:16:42.086Z,101054.31
2018-01-25T21:19:08.312Z,101062.00
2018-01-25T21:21:34.852Z,101056.78
2018-01-25T21:24:01.082Z,101060.44
2018-01-25T21:26:27.317Z,101057.81
2018-01-25T21:28:53.564Z,101054.46
2018-01-25T21:31:19.845Z,101061.45
2018-01-25T21:33:46.134Z,101064.00
2018-01-25T21:36:12.357Z,101061.46
2018-01-25T21:38:38.557Z,101067.65
2018-01-25T21:41:04.765Z,101057.31
2018-01-25T21:43:30.998Z,101061.66
2018-01-25T21:45:57.249Z,101057.92
2018-01-25T21:48:23.508Z,101054.28
2018-01-25T21:50:49.888Z,101055.53
2018-01-25T21:53:16.069Z,101050.80
2018-01-25T21:55:42.264Z,101047.50
2018-01-25T21:58:08.528Z,101056.78
2018-01-25T22:00:34.892Z,101049.59
2018-01-25T22:03:01.100Z,101042.65
2018-01-25T22:05:27.360Z,101049.80
2018-01-25T22:07:53.568Z,101051.33
2018-01-25T22:10:19.750Z,101045.33
2018-01-25T22:12:46.212Z,101044.11
2018-01-25T22:15:12.421Z,101042.69
2018-01-25T22:17:38.645Z,101053.90
2018-01-25T22:20:04.941Z,101045.19
2018-01-25T22:22:31.121Z,101045.20
2018-01-25T22:24:57.370Z,101050.05
2018-01-25T22:27:23.621Z,101045.39
2018-01-25T22:29:49.808Z,101052.03
2018-01-25T22:32:16.089Z,101047.35
2018-01-25T22:34:42.380Z,101046.21
2018-01-25T22:37:08.579Z,101050.26
2018-01-25T22:39:34.892Z,101043.17
2018-01-25T22:42:01.152Z,101049.21
2018-01-25T22:44:27.364Z,101049.14
2018-01-25T22:46:53.588Z,101049.47
2018-01-25T22:49:19.780Z,101051.97
2018-01-25T22:51:46.057Z,101045.72
2018-01-25T22:54:12.308Z,101043.55
2018-01-25T22:56:38.501Z,101045.08
2018-01-25T22:59:04.747Z,101043.73
2018-01-25T23:01:30.980Z,101046.13
2018-01-25T23:03:57.213Z,101039.99
2018-01-25T23:06:23.421Z,101040.20
2018-01-25T23:08:49.661Z,101042.84
2018-01-25T23:11:16.016Z,101044.25
2018-01-25T23:13:42.204Z,101047.24
2018-01-25T23:16:08.449Z,101048.61
2018-01-25T23:18:34.791Z,101050.13
2018-01-25T23:21:01.262Z,101039.64
2018-01-25T23:23:27.644Z,101035.29
2018-01-25T23:25:54.149Z,101032.69
2018-01-25T23:28:20.561Z,101029.86
2018-01-25T23:30:47.014Z,101032.83
2018-01-25T23:33:13.449Z,101031.26
2018-01-25T23:35:39.861Z,101030.89
2018-01-25T23:38:06.305Z,101024.13
2018-01-25T23:40:32.861Z,101025.38
2018-01-25T23:42:59.237Z,101028.45
2018-01-25T23:45:25.725Z,101033.92
2018-01-25T23:47:52.190Z,101036.14
2018-01-25T23:50:18.563Z,101033.53
2018-01-25T23:52:45.046Z,101034.73
2018-01-25T23:55:11.477Z,101042.34
2018-01-25T23:57:37.913Z,101044.38
